createdAt,value
2023-10-21T00:01:41.062Z,2.08
2023-10-21T00:04:08.225Z,4.03
2023-10-21T00:06:35.862Z,6.25
2023-10-21T00:09:03.104Z,2.60
2023-10-21T00:11:30.238Z,2.10
2023-10-21T00:13:58.350Z,2.28
2023-10-21T00:16:25.767Z,3.33
2023-10-21T00:18:53.049Z,4.57
2023-10-21T00:21:20.210Z,3.47
2023-10-21T00:23:47.363Z,1.88
2023-10-21T00:26:14.514Z,1.77
2023-10-21T00:28:41.556Z,2.15
2023-10-21T00:31:08.669Z,1.67
2023-10-21T00:33:35.775Z,4.20
2023-10-21T00:36:02.848Z,2.70
2023-10-21T00:38:29.961Z,3.22
2023-10-21T00:40:57.557Z,2.25
2023-10-21T00:43:34.569Z,4.65
2023-10-21T00:46:19.983Z,4.35
2023-10-21T00:48:47.559Z,4.05
2023-10-21T00:51:16.191Z,1.60
2023-10-21T00:53:43.438Z,3.72
2023-10-21T00:56:10.621Z,2.22
2023-10-21T00:58:37.827Z,1.40
2023-10-21T01:01:09.704Z,1.48
2023-10-21T01:03:37.376Z,1.27
2023-10-21T01:06:05.050Z,5.10
2023-10-21T01:08:32.212Z,5.28
2023-10-21T01:10:59.738Z,2.17
2023-10-21T01:13:27.156Z,3.42
2023-10-21T01:15:54.232Z,2.65
2023-10-21T01:18:24.055Z,1.17
2023-10-21T01:20:55.433Z,1.65
2023-10-21T01:23:22.526Z,3.33
2023-10-21T01:25:49.630Z,2.15
2023-10-21T01:28:16.750Z,3.60
2023-10-21T01:30:43.762Z,3.95
2023-10-21T01:33:10.843Z,1.88
2023-10-21T01:35:37.910Z,2.85
2023-10-21T01:38:05.223Z,2.05
2023-10-21T01:40:32.286Z,1.63
2023-10-21T01:42:59.323Z,3.50
2023-10-21T01:45:26.398Z,2.10
2023-10-21T01:47:53.497Z,2.67
2023-10-21T01:50:20.764Z,2.95
2023-10-21T01:52:47.939Z,1.80
2023-10-21T01:55:15.042Z,1.50
2023-10-21T01:57:42.050Z,0.80
2023-10-21T02:00:12.336Z,2.28
2023-10-21T02:02:39.654Z,3.70
2023-10-21T02:05:07.445Z,0.77
2023-10-21T02:07:38.239Z,2.72
2023-10-21T02:10:05.663Z,3.20
2023-10-21T02:12:32.867Z,1.98
2023-10-21T02:15:00.093Z,1.23
2023-10-21T02:17:27.269Z,4.03
2023-10-21T02:19:57.514Z,1.77
2023-10-21T02:22:28.089Z,1.20
2023-10-21T02:24:55.703Z,2.88
2023-10-21T02:27:22.830Z,5.38
2023-10-21T02:29:50.659Z,2.25
2023-10-21T02:32:17.823Z,1.50
2023-10-21T02:34:45.170Z,7.30
2023-10-21T02:37:12.698Z,4.70
2023-10-21T02:39:39.918Z,0.88
2023-10-21T02:42:08.027Z,3.05
2023-10-21T02:44:36.832Z,1.15
2023-10-21T02:47:04.583Z,1.65
2023-10-21T02:49:31.926Z,0.82
2023-10-21T02:51:59.141Z,4.25
2023-10-21T02:54:26.917Z,0.70
2023-10-21T02:56:54.230Z,3.20
2023-10-21T02:59:22.030Z,1.27
2023-10-21T03:01:49.655Z,1.73
2023-10-21T03:04:16.821Z,6.43
2023-10-21T03:06:43.993Z,1.95
2023-10-21T03:09:11.104Z,1.30
2023-10-21T03:11:38.274Z,0.30
2023-10-21T03:14:05.382Z,0.43
2023-10-21T03:16:32.674Z,0.47
2023-10-21T03:18:59.699Z,0.70
2023-10-21T03:21:26.752Z,1.95
2023-10-21T03:23:54.312Z,1.15
2023-10-21T03:26:22.485Z,1.25
2023-10-21T03:28:51.708Z,3.05
2023-10-21T03:31:18.826Z,0.40
2023-10-21T03:33:45.987Z,1.27
2023-10-21T03:36:13.928Z,0.20
2023-10-21T03:38:41.282Z,1.00
2023-10-21T03:41:09.021Z,0.38
2023-10-21T03:43:36.171Z,0.95
2023-10-21T03:46:04.906Z,0.40
2023-10-21T03:48:33.119Z,1.35
2023-10-21T03:51:05.234Z,0.95
2023-10-21T03:53:35.479Z,0.30
2023-10-21T03:56:03.733Z,0.85
2023-10-21T03:58:30.836Z,1.50
2023-10-21T04:01:00.768Z,0.93
2023-10-21T04:03:28.130Z,2.50
2023-10-21T04:05:55.683Z,0.30
2023-10-21T04:08:22.905Z,0.88
2023-10-21T04:10:49.988Z,0.75
2023-10-21T04:13:17.138Z,0.20
2023-10-21T04:15:44.298Z,0.85
2023-10-21T04:18:11.615Z,0.20
2023-10-21T04:20:39.295Z,1.13
2023-10-21T04:23:06.762Z,0.13
2023-10-21T04:25:33.807Z,0.30
2023-10-21T04:28:01.476Z,0.40
2023-10-21T04:30:28.548Z,0.20
2023-10-21T04:32:56.532Z,0.40
2023-10-21T04:35:23.722Z,0.73
2023-10-21T04:37:50.823Z,3.30
2023-10-21T04:40:17.893Z,2.40
2023-10-21T04:42:45.042Z,0.85
2023-10-21T04:45:12.616Z,2.25
2023-10-21T04:47:39.782Z,3.67
2023-10-21T04:50:07.216Z,0.10
2023-10-21T04:52:34.564Z,3.33
2023-10-21T04:55:01.797Z,0.38
2023-10-21T04:57:29.072Z,0.90
2023-10-21T04:59:56.208Z,0.10
2023-10-21T05:02:23.230Z,1.25
2023-10-21T05:04:51.432Z,0.45
2023-10-21T05:07:18.905Z,0.20
2023-10-21T05:09:46.104Z,0.43
2023-10-21T05:12:13.229Z,0.50
2023-10-21T05:14:40.430Z,0.70
2023-10-21T05:17:07.534Z,0.70
2023-10-21T05:19:34.605Z,1.02
2023-10-21T05:22:01.725Z,0.68
2023-10-21T05:24:28.825Z,1.58
2023-10-21T05:26:56.013Z,0.40
2023-10-21T05:29:23.192Z,0.82
2023-10-21T05:31:50.675Z,0.57
2023-10-21T05:34:20.792Z,1.40
2023-10-21T05:36:48.119Z,0.20
2023-10-21T05:39:15.438Z,0.63
2023-10-21T05:41:42.762Z,1.02
2023-10-21T05:44:10.150Z,0.45
2023-10-21T05:46:37.387Z,0.73
2023-10-21T05:49:04.853Z,0.32
2023-10-21T05:51:33.014Z,0.77
2023-10-21T05:54:00.583Z,1.33
2023-10-21T05:56:27.742Z,0.45
2023-10-21T05:58:54.813Z,0.75
2023-10-21T06:01:22.079Z,0.65
2023-10-21T06:03:49.261Z,1.00
2023-10-21T06:06:18.418Z,0.30
2023-10-21T06:08:45.984Z,1.00
2023-10-21T06:11:13.456Z,0.65
2023-10-21T06:13:40.613Z,0.40
2023-10-21T06:16:08.033Z,0.40
2023-10-21T06:18:35.225Z,0.60
2023-10-21T06:21:02.388Z,1.90
2023-10-21T06:23:29.486Z,0.50
2023-10-21T06:25:56.504Z,0.40
2023-10-21T06:28:23.934Z,0.30
2023-10-21T06:30:50.962Z,0.45
2023-10-21T06:33:18.211Z,1.23
2023-10-21T06:35:45.353Z,0.38
2023-10-21T06:38:12.400Z,1.40
2023-10-21T06:40:52.365Z,1.13
2023-10-21T06:43:22.533Z,1.15
2023-10-21T06:45:49.635Z,0.40
2023-10-21T06:48:18.233Z,0.32
2023-10-21T06:50:45.525Z,0.68
2023-10-21T06:53:12.572Z,2.10
2023-10-21T06:55:43.525Z,3.63
2023-10-21T06:58:11.136Z,1.42
2023-10-21T07:00:38.387Z,3.40
2023-10-21T07:03:08.957Z,2.60
2023-10-21T07:05:36.447Z,2.22
2023-10-21T07:08:03.995Z,2.42
2023-10-21T07:10:32.039Z,1.88
2023-10-21T07:12:59.488Z,1.75
2023-10-21T07:15:29.135Z,0.88
2023-10-21T07:17:58.873Z,2.10
2023-10-21T07:20:29.314Z,1.13
2023-10-21T07:22:56.549Z,1.00
2023-10-21T07:25:24.810Z,3.65
2023-10-21T07:27:52.377Z,1.55
2023-10-21T07:30:19.638Z,1.95
2023-10-21T07:32:48.188Z,3.05
2023-10-21T07:35:22.876Z,1.50
2023-10-21T07:37:51.002Z,1.60
2023-10-21T07:40:18.080Z,3.03
2023-10-21T07:42:45.140Z,1.48
2023-10-21T07:45:15.859Z,4.25
2023-10-21T07:47:43.346Z,1.42
2023-10-21T07:50:11.344Z,0.90
2023-10-21T07:52:38.581Z,0.88
2023-10-21T07:55:05.812Z,0.82
2023-10-21T07:57:33.094Z,3.53
2023-10-21T08:00:00.586Z,0.85
2023-10-21T08:02:28.054Z,0.30
2023-10-21T08:04:55.316Z,1.95
2023-10-21T08:07:22.895Z,1.00
2023-10-21T08:09:50.170Z,4.55
2023-10-21T08:12:17.309Z,0.95
2023-10-21T08:14:44.473Z,1.05
2023-10-21T08:17:11.530Z,1.02
2023-10-21T08:19:38.669Z,0.55
2023-10-21T08:22:07.108Z,0.25
2023-10-21T08:24:34.683Z,0.25
2023-10-21T08:27:03.798Z,0.40
2023-10-21T08:29:31.143Z,2.90
2023-10-21T08:31:58.239Z,4.07
2023-10-21T08:34:25.316Z,1.05
2023-10-21T08:36:52.412Z,1.63
2023-10-21T08:39:21.515Z,1.58
2023-10-21T08:41:48.571Z,1.45
2023-10-21T08:44:15.654Z,0.70
2023-10-21T08:46:42.772Z,4.38
2023-10-21T08:49:10.920Z,0.85
2023-10-21T08:51:38.036Z,2.33
2023-10-21T08:54:05.299Z,1.15
2023-10-21T08:56:32.707Z,0.65
2023-10-21T08:59:00.302Z,0.35
2023-10-21T09:01:27.406Z,1.23
2023-10-21T09:03:54.626Z,1.38
2023-10-21T09:06:21.767Z,2.53
2023-10-21T09:08:49.092Z,2.33
2023-10-21T09:11:17.064Z,1.70
2023-10-21T09:13:44.276Z,1.52
2023-10-21T09:16:20.845Z,0.57
2023-10-21T09:19:08.347Z,0.47
2023-10-21T09:21:38.334Z,0.43
2023-10-21T09:24:10.448Z,3.13
2023-10-21T09:26:38.366Z,1.60
2023-10-21T09:29:09.086Z,3.25
2023-10-21T09:32:03.020Z,1.00
2023-10-21T09:34:34.295Z,1.75
2023-10-21T09:37:02.989Z,1.50
2023-10-21T09:39:33.669Z,3.75
2023-10-21T09:42:01.260Z,2.22
2023-10-21T09:44:28.389Z,1.80
2023-10-21T09:46:58.969Z,3.20
2023-10-21T09:50:03.844Z,1.48
2023-10-21T09:52:36.092Z,0.55
2023-10-21T09:55:09.570Z,2.22
2023-10-21T09:57:39.913Z,1.70
2023-10-21T10:02:39.790Z,1.30
2023-10-21T10:05:10.162Z,2.53
2023-10-21T10:07:41.170Z,1.23
2023-10-21T10:10:12.098Z,0.70
2023-10-21T10:12:40.273Z,3.75
2023-10-21T10:15:28.508Z,2.03
2023-10-21T10:17:55.730Z,3.88
2023-10-21T10:20:25.724Z,1.65
2023-10-21T10:23:02.402Z,1.40
2023-10-21T10:25:36.373Z,1.27
2023-10-21T10:28:08.983Z,1.38
2023-10-21T10:30:37.706Z,2.78
2023-10-21T10:33:07.720Z,2.95
2023-10-21T10:38:03.810Z,1.98
2023-10-21T10:40:34.901Z,5.05
2023-10-21T10:43:02.377Z,2.05
2023-10-21T10:45:29.539Z,4.22
2023-10-21T10:47:59.232Z,3.40
2023-10-21T10:50:27.682Z,2.40
2023-10-21T10:52:55.971Z,1.67
2023-10-21T10:55:23.405Z,2.97
2023-10-21T10:57:52.607Z,2.65
2023-10-21T11:00:22.640Z,2.53
2023-10-21T11:02:50.670Z,2.88
2023-10-21T11:05:21.152Z,2.15
2023-10-21T11:07:48.977Z,1.02
2023-10-21T11:10:19.439Z,3.60
2023-10-21T11:12:46.651Z,2.45
2023-10-21T11:15:13.762Z,1.80
2023-10-21T11:17:41.110Z,1.52
2023-10-21T11:20:08.827Z,2.22
2023-10-21T11:22:35.858Z,2.97
2023-10-21T11:25:04.172Z,1.58
2023-10-21T11:27:31.365Z,2.20
2023-10-21T11:29:58.573Z,1.55
2023-10-21T11:32:34.841Z,2.78
2023-10-21T11:35:03.136Z,2.45
2023-10-21T11:37:30.869Z,8.85
2023-10-21T11:39:58.506Z,1.77
2023-10-21T11:42:25.659Z,2.05
2023-10-21T11:44:57.053Z,1.35
2023-10-21T11:47:27.583Z,3.58
2023-10-21T11:49:55.751Z,4.57
2023-10-21T11:52:23.177Z,3.13
2023-10-21T11:55:16.473Z,2.58
2023-10-21T11:58:04.022Z,1.95
2023-10-21T12:00:51.075Z,1.58
2023-10-21T12:03:36.259Z,1.90
2023-10-21T12:06:23.477Z,2.13
2023-10-21T12:09:09.384Z,1.25
2023-10-21T12:11:51.382Z,3.50
2023-10-21T12:14:53.422Z,3.25
2023-10-21T12:17:23.165Z,3.25
2023-10-21T12:20:08.671Z,2.65
2023-10-21T12:22:53.754Z,4.18
2023-10-21T12:25:29.661Z,1.05
2023-10-21T12:27:56.836Z,4.15
2023-10-21T12:30:38.917Z,3.05
2023-10-21T12:33:32.344Z,3.83
2023-10-21T12:36:28.709Z,4.75
2023-10-21T12:39:18.774Z,2.28
2023-10-21T12:41:49.017Z,4.70
2023-10-21T12:44:16.100Z,2.70
2023-10-21T12:46:43.580Z,3.60
2023-10-21T12:49:26.377Z,4.78
2023-10-21T12:51:55.201Z,1.88
2023-10-21T12:54:22.376Z,3.40
2023-10-21T12:56:50.570Z,1.23
2023-10-21T12:59:18.043Z,2.92
2023-10-21T13:01:45.185Z,3.15
2023-10-21T13:04:13.223Z,1.98
2023-10-21T13:06:40.392Z,2.25
2023-10-21T13:09:22.724Z,3.00
2023-10-21T13:11:53.211Z,2.78
2023-10-21T13:14:20.807Z,3.75
2023-10-21T13:16:48.905Z,3.60
2023-10-21T13:19:16.059Z,3.58
2023-10-21T13:21:43.212Z,2.90
2023-10-21T13:24:10.622Z,3.15
2023-10-21T13:26:38.487Z,2.03
2023-10-21T13:29:06.038Z,2.75
2023-10-21T13:31:34.932Z,5.75
2023-10-21T13:34:04.034Z,4.28
2023-10-21T13:36:34.382Z,7.78
2023-10-21T13:39:01.952Z,3.08
2023-10-21T13:41:29.369Z,3.15
2023-10-21T13:43:56.458Z,4.05
2023-10-21T13:46:23.780Z,2.38
2023-10-21T13:48:52.714Z,2.78
2023-10-21T13:51:19.925Z,2.90
2023-10-21T13:53:46.982Z,2.10
2023-10-21T13:56:14.092Z,2.22
2023-10-21T13:58:42.989Z,3.15
2023-10-21T14:01:13.732Z,1.55
2023-10-21T14:03:41.554Z,2.47
2023-10-21T14:06:09.166Z,4.45
2023-10-21T14:08:36.368Z,3.58
2023-10-21T14:11:07.509Z,3.65
2023-10-21T14:13:35.186Z,4.93
2023-10-21T14:16:06.441Z,2.97
2023-10-21T14:18:34.000Z,5.47
2023-10-21T14:21:01.158Z,2.33
2023-10-21T14:23:28.674Z,3.10
2023-10-21T14:25:56.594Z,5.25
2023-10-21T14:28:27.069Z,2.70
2023-10-21T14:30:55.728Z,3.25
2023-10-21T14:33:23.778Z,3.83
2023-10-21T14:35:55.628Z,2.88
2023-10-21T14:38:23.073Z,5.70
2023-10-21T14:40:50.322Z,3.20
2023-10-21T14:43:17.759Z,1.92
2023-10-21T14:45:45.486Z,2.17
2023-10-21T14:48:15.613Z,4.82
2023-10-21T14:50:43.644Z,5.40
2023-10-21T14:53:10.866Z,2.08
2023-10-21T14:55:51.648Z,2.53
2023-10-21T14:58:23.989Z,2.67
2023-10-21T15:00:51.833Z,2.25
2023-10-21T15:03:21.515Z,3.20
2023-10-21T15:05:49.655Z,2.70
2023-10-21T15:08:20.881Z,2.00
2023-10-21T15:10:48.302Z,2.22
2023-10-21T15:13:15.366Z,2.75
2023-10-21T15:15:44.060Z,4.35
2023-10-21T15:18:11.766Z,5.78
2023-10-21T15:20:39.239Z,2.65
2023-10-21T15:23:06.480Z,2.03
2023-10-21T15:25:34.394Z,2.08
2023-10-21T15:28:01.774Z,4.30
2023-10-21T15:30:29.126Z,1.67
2023-10-21T15:32:59.001Z,2.45
2023-10-21T15:35:26.529Z,3.55
2023-10-21T15:37:54.001Z,2.58
2023-10-21T15:40:22.006Z,2.97
2023-10-21T15:42:50.399Z,3.45
2023-10-21T15:45:17.746Z,2.92
2023-10-21T15:47:45.264Z,4.78
2023-10-21T15:50:12.384Z,4.28
2023-10-21T15:52:39.609Z,4.10
2023-10-21T15:55:07.033Z,5.70
2023-10-21T15:57:34.697Z,5.63
2023-10-21T16:00:15.182Z,5.30
2023-10-21T16:02:43.168Z,4.65
2023-10-21T16:05:10.628Z,2.63
2023-10-21T16:07:54.092Z,5.13
2023-10-21T16:10:24.126Z,4.88
2023-10-21T16:12:51.151Z,4.57
2023-10-21T16:15:18.411Z,3.92
2023-10-21T16:17:47.284Z,4.38
2023-10-21T16:20:14.374Z,2.08
2023-10-21T16:22:41.510Z,4.28
2023-10-21T16:25:10.208Z,2.72
2023-10-21T16:27:37.300Z,4.68
2023-10-21T16:30:04.982Z,3.72
2023-10-21T16:32:32.084Z,3.45
2023-10-21T16:34:59.518Z,4.60
2023-10-21T16:37:26.760Z,3.30
2023-10-21T16:39:56.888Z,3.00
2023-10-21T16:42:24.777Z,4.78
2023-10-21T16:44:51.901Z,4.70
2023-10-21T16:47:18.958Z,4.05
2023-10-21T16:49:46.038Z,7.45
2023-10-21T16:52:13.068Z,9.43
2023-10-21T16:54:42.047Z,2.58
2023-10-21T16:57:10.842Z,3.03
2023-10-21T16:59:38.452Z,4.70
2023-10-21T17:02:05.854Z,5.40
2023-10-21T17:04:33.455Z,6.35
2023-10-21T17:07:00.680Z,5.57
2023-10-21T17:09:27.874Z,2.63
2023-10-21T17:11:55.074Z,4.45
2023-10-21T17:14:22.138Z,4.90
2023-10-21T17:16:49.248Z,5.00
2023-10-21T17:19:16.426Z,3.63
2023-10-21T17:21:43.706Z,5.43
2023-10-21T17:24:13.340Z,3.05
2023-10-21T17:26:40.711Z,3.67
2023-10-21T17:29:07.904Z,3.10
2023-10-21T17:31:35.266Z,3.92
2023-10-21T17:34:02.709Z,3.92
2023-10-21T17:36:29.891Z,2.88
2023-10-21T17:38:57.216Z,4.57
2023-10-21T17:41:24.384Z,3.10
2023-10-21T17:43:53.439Z,3.55
2023-10-21T17:46:22.753Z,5.10
2023-10-21T17:48:49.996Z,5.00
2023-10-21T17:51:19.778Z,4.38
2023-10-21T17:53:47.066Z,4.07
2023-10-21T17:56:14.216Z,4.50
2023-10-21T17:58:41.358Z,3.13
2023-10-21T18:01:08.521Z,6.05
2023-10-21T18:03:35.840Z,2.83
2023-10-21T18:06:03.231Z,3.58
2023-10-21T18:08:30.310Z,8.40
2023-10-21T18:10:57.490Z,4.18
2023-10-21T18:13:24.584Z,5.50
2023-10-21T18:15:51.849Z,3.15
2023-10-21T18:18:19.159Z,6.68
2023-10-21T18:20:46.467Z,5.90
2023-10-21T18:23:13.573Z,4.93
2023-10-21T18:25:40.738Z,5.15
2023-10-21T18:28:07.888Z,5.72
2023-10-21T18:30:35.074Z,4.30
2023-10-21T18:33:02.265Z,4.15
2023-10-21T18:35:29.442Z,3.08
2023-10-21T18:38:00.316Z,5.47
2023-10-21T18:40:27.556Z,4.95
2023-10-21T18:42:55.982Z,5.20
2023-10-21T18:45:23.176Z,5.00
2023-10-21T18:47:50.441Z,4.82
2023-10-21T18:50:17.696Z,3.55
2023-10-21T18:52:44.804Z,5.35
2023-10-21T18:55:11.967Z,5.28
2023-10-21T18:57:39.152Z,3.97
2023-10-21T19:00:06.954Z,7.35
2023-10-21T19:02:34.156Z,7.05
2023-10-21T19:05:01.358Z,2.58
2023-10-21T19:07:28.502Z,6.32
2023-10-21T19:09:57.488Z,3.03
2023-10-21T19:12:24.695Z,6.90
2023-10-21T19:14:51.872Z,5.75
2023-10-21T19:17:18.938Z,6.72
2023-10-21T19:19:46.242Z,8.55
2023-10-21T19:22:13.389Z,7.25
2023-10-21T19:24:40.619Z,3.03
2023-10-21T19:27:07.889Z,3.67
2023-10-21T19:29:36.528Z,8.02
2023-10-21T19:32:04.363Z,7.68
2023-10-21T19:34:31.559Z,5.82
2023-10-21T19:36:58.730Z,4.93
2023-10-21T19:39:30.236Z,8.63
2023-10-21T19:41:57.517Z,5.72
2023-10-21T19:44:27.167Z,5.88
2023-10-21T19:46:55.767Z,5.18
2023-10-21T19:49:24.543Z,6.55
2023-10-21T19:51:52.022Z,7.47
2023-10-21T19:54:19.396Z,6.55
2023-10-21T19:56:46.537Z,7.40
2023-10-21T19:59:13.700Z,4.47
2023-10-21T20:01:40.920Z,3.35
2023-10-21T20:04:11.696Z,5.38
2023-10-21T20:06:39.460Z,5.25
2023-10-21T20:09:06.710Z,3.83
2023-10-21T20:11:33.789Z,3.40
2023-10-21T20:14:00.857Z,10.55
2023-10-21T20:16:28.002Z,4.35
2023-10-21T20:18:55.291Z,3.65
2023-10-21T20:21:22.480Z,7.13
2023-10-21T20:23:49.641Z,4.53
2023-10-21T20:26:16.740Z,7.20
2023-10-21T20:28:43.930Z,6.35
2023-10-21T20:31:11.515Z,6.05
2023-10-21T20:33:38.747Z,5.65
2023-10-21T20:36:06.909Z,7.75
2023-10-21T20:38:34.179Z,5.28
2023-10-21T20:41:10.861Z,5.30
2023-10-21T20:43:38.059Z,6.38
2023-10-21T20:46:05.483Z,8.80
2023-10-21T20:48:33.007Z,4.82
2023-10-21T20:51:00.156Z,8.02
2023-10-21T20:53:27.243Z,8.20
2023-10-21T20:55:54.866Z,11.10
2023-10-21T20:58:23.201Z,5.88
2023-10-21T21:00:52.053Z,7.68
2023-10-21T21:03:19.268Z,7.93
2023-10-21T21:05:46.555Z,4.70
2023-10-21T21:08:13.644Z,5.63
2023-10-21T21:10:40.744Z,8.82
2023-10-21T21:13:07.932Z,5.28
2023-10-21T21:15:35.946Z,8.85
2023-10-21T21:18:04.375Z,7.90
2023-10-21T21:20:31.681Z,5.57
2023-10-21T21:22:58.850Z,6.78
2023-10-21T21:25:26.019Z,13.25
2023-10-21T21:27:53.155Z,9.20
2023-10-21T21:30:20.466Z,10.88
2023-10-21T21:32:47.722Z,8.43
2023-10-21T21:35:14.982Z,9.85
2023-10-21T21:37:42.097Z,7.80
2023-10-21T21:40:10.392Z,12.13
2023-10-21T21:42:37.853Z,5.63
2023-10-21T21:45:05.553Z,10.52
2023-10-21T21:47:36.101Z,6.63
2023-10-21T21:50:04.345Z,5.32
2023-10-21T21:52:31.544Z,4.88
2023-10-21T21:54:58.713Z,6.13
2023-10-21T21:57:25.923Z,6.13
2023-10-21T21:59:53.059Z,6.40
2023-10-21T22:02:20.201Z,7.35
2023-10-21T22:04:48.709Z,7.38
2023-10-21T22:07:20.428Z,6.05
2023-10-21T22:09:47.767Z,5.43
2023-10-21T22:12:14.858Z,5.90
2023-10-21T22:14:42.624Z,6.85
2023-10-21T22:17:09.828Z,6.13
2023-10-21T22:19:37.449Z,4.10
2023-10-21T22:22:07.003Z,4.68
2023-10-21T22:24:38.077Z,4.32
2023-10-21T22:27:14.349Z,6.65
2023-10-21T22:29:45.852Z,7.25
2023-10-21T22:32:13.756Z,7.25
2023-10-21T22:34:40.962Z,7.78
2023-10-21T22:37:08.468Z,4.20
2023-10-21T22:39:35.873Z,3.58
2023-10-21T22:42:03.363Z,5.50
2023-10-21T22:44:30.553Z,6.50
2023-10-21T22:46:58.663Z,4.53
2023-10-21T22:49:26.013Z,6.03
2023-10-21T22:51:53.146Z,6.03
2023-10-21T22:54:20.296Z,8.20
2023-10-21T22:56:47.778Z,4.30
2023-10-21T22:59:14.946Z,3.78
2023-10-21T23:01:42.509Z,3.22
2023-10-21T23:04:10.341Z,7.65
2023-10-21T23:06:40.920Z,5.82
2023-10-21T23:11:55.089Z,2.78
2023-10-21T23:14:22.269Z,5.15
2023-10-21T23:16:49.680Z,5.10
2023-10-21T23:19:16.813Z,6.72
2023-10-21T23:21:47.382Z,4.75
2023-10-21T23:26:41.501Z,4.60
2023-10-21T23:29:08.624Z,6.03
2023-10-21T23:31:35.784Z,7.03
2023-10-21T23:34:05.018Z,9.75
2023-10-21T23:36:32.242Z,5.53
2023-10-21T23:38:59.766Z,9.07
2023-10-21T23:41:26.902Z,6.80
2023-10-21T23:43:53.969Z,6.60
2023-10-21T23:46:21.093Z,5.97
2023-10-21T23:48:48.291Z,4.88
2023-10-21T23:51:15.456Z,5.70
2023-10-21T23:53:42.554Z,5.80
2023-10-21T23:56:09.657Z,6.90
2023-10-21T23:58:38.328Z,3.92
